createdAt,value
2022-11-19T00:01:11.898Z,98390.84
2022-11-19T00:03:40.240Z,98391.13
2022-11-19T00:06:18.239Z,98390.84
2022-11-19T00:08:45.562Z,98392.09
2022-11-19T00:11:13.198Z,98385.78
2022-11-19T00:13:41.141Z,98381.28
2022-11-19T00:16:10.590Z,98389.56
2022-11-19T00:18:38.526Z,98385.78
2022-11-19T00:21:07.364Z,98391.53
2022-11-19T00:23:34.177Z,98387.31
2022-11-19T00:26:05.975Z,98384.78
2022-11-19T00:28:32.760Z,98388.59
2022-11-19T00:31:04.404Z,98394.91
2022-11-19T00:33:31.373Z,98382.41
2022-11-19T00:35:59.402Z,98384.09
2022-11-19T00:38:26.173Z,98385.19
2022-11-19T00:40:53.151Z,98375.94
2022-11-19T00:43:38.504Z,98375.66
2022-11-19T00:46:05.919Z,98370.59
2022-11-19T00:48:32.547Z,98375.94
2022-11-19T00:50:58.932Z,98386.09
2022-11-19T00:53:25.472Z,98380.72
2022-11-19T00:55:51.961Z,98376.22
2022-11-19T00:58:19.367Z,98389.88
2022-11-19T01:00:46.765Z,98387.91
2022-11-19T01:03:13.324Z,98395.34
2022-11-19T01:05:39.767Z,98382.16
2022-11-19T01:08:06.170Z,98395.34
2022-11-19T01:10:34.686Z,98386.34
2022-11-19T01:13:20.186Z,98384.69
2022-11-19T01:15:49.991Z,98386.22
2022-11-19T01:18:17.804Z,98388.72
2022-11-19T01:20:45.084Z,98390.03
2022-11-19T01:23:11.799Z,98393.38
2022-11-19T01:25:38.788Z,98386.50
2022-11-19T01:28:06.114Z,98398.13
2022-11-19T01:30:33.307Z,98389.00
2022-11-19T01:32:59.978Z,98396.88
2022-11-19T01:35:26.405Z,98391.97
2022-11-19T01:37:53.746Z,98390.31
2022-11-19T01:40:20.158Z,98385.66
2022-11-19T01:42:49.409Z,98389.72
2022-11-19T01:45:35.605Z,98391.13
2022-11-19T01:48:22.456Z,98394.22
2022-11-19T01:50:57.046Z,98395.91
2022-11-19T01:53:29.350Z,98399.25
2022-11-19T01:55:59.486Z,98397.72
2022-11-19T01:58:26.176Z,98404.31
2022-11-19T02:00:52.752Z,98402.97
2022-11-19T02:03:19.368Z,98405.78
2022-11-19T02:05:46.435Z,98410.50
2022-11-19T02:08:36.717Z,98411.59
2022-11-19T02:11:18.648Z,98421.72
2022-11-19T02:13:54.636Z,98425.13
2022-11-19T02:16:32.905Z,98416.59
2022-11-19T02:19:41.176Z,98424.72
2022-11-19T02:22:26.500Z,98424.31
2022-11-19T02:24:55.699Z,98433.28
2022-11-19T02:27:50.669Z,98422.47
2022-11-19T02:30:19.211Z,98427.94
2022-11-19T02:33:00.720Z,98435.25
2022-11-19T02:35:40.375Z,98430.34
2022-11-19T02:38:41.225Z,98434.56
2022-11-19T02:41:31.563Z,98431.63
2022-11-19T02:44:26.857Z,98437.81
2022-11-19T02:46:54.951Z,98438.94
2022-11-19T02:49:25.843Z,98435.59
2022-11-19T02:51:52.547Z,98436.25
2022-11-19T02:54:19.069Z,98434.44
2022-11-19T02:56:52.999Z,98441.69
2022-11-19T02:59:52.631Z,98442.72
2022-11-19T03:02:40.730Z,98435.50
2022-11-19T03:05:11.496Z,98437.88
2022-11-19T03:07:38.310Z,98436.44
2022-11-19T03:10:08.688Z,98434.63
2022-11-19T03:12:41.177Z,98430.81
2022-11-19T03:15:45.027Z,98437.13
2022-11-19T03:18:31.453Z,98435.56
2022-11-19T03:21:10.064Z,98440.06
2022-11-19T03:23:48.522Z,98446.06
2022-11-19T03:26:29.759Z,98448.56
2022-11-19T03:29:00.726Z,98456.63
2022-11-19T03:31:30.617Z,98453.25
2022-11-19T03:34:07.535Z,98449.09
2022-11-19T03:36:37.716Z,98446.84
2022-11-19T03:39:09.115Z,98452.53
2022-11-19T03:41:38.600Z,98449.41
2022-11-19T03:44:11.527Z,98449.69
2022-11-19T03:46:39.877Z,98450.25
2022-11-19T03:49:08.211Z,98455.66
2022-11-19T03:51:52.069Z,98465.25
2022-11-19T03:54:18.637Z,98464.97
2022-11-19T03:56:46.882Z,98462.31
2022-11-19T03:59:13.691Z,98469.66
2022-11-19T04:01:43.420Z,98464.72
2022-11-19T04:04:28.929Z,98463.34
2022-11-19T04:06:55.392Z,98467.38
2022-11-19T04:09:22.242Z,98468.06
2022-11-19T04:14:14.251Z,98477.22
2022-11-19T04:16:40.643Z,98480.88
2022-11-19T04:19:07.314Z,98481.63
2022-11-19T04:21:33.734Z,98487.22
2022-11-19T04:24:00.376Z,98486.66
2022-11-19T04:26:26.801Z,98504.16
2022-11-19T04:28:53.397Z,98505.41
2022-11-19T04:31:19.939Z,98512.03
2022-11-19T04:33:46.516Z,98519.03
2022-11-19T04:36:12.960Z,98507.66
2022-11-19T04:38:39.643Z,98496.44
2022-11-19T04:41:06.144Z,98512.25
2022-11-19T04:43:33.931Z,98502.63
2022-11-19T04:46:00.355Z,98513.34
2022-11-19T04:48:26.797Z,98515.38
2022-11-19T04:50:53.471Z,98508.06
2022-11-19T04:53:20.198Z,98519.03
2022-11-19T04:55:46.783Z,98511.69
2022-11-19T04:58:13.204Z,98516.03
2022-11-19T05:00:41.079Z,98514.81
2022-11-19T05:03:07.596Z,98520.25
2022-11-19T05:05:34.229Z,98523.28
2022-11-19T05:08:00.632Z,98524.34
2022-11-19T05:10:27.180Z,98523.88
2022-11-19T05:12:53.576Z,98521.44
2022-11-19T05:15:20.086Z,98525.91
2022-11-19T05:17:46.571Z,98530.38
2022-11-19T05:20:14.300Z,98530.25
2022-11-19T05:22:40.685Z,98532.91
2022-11-19T05:25:07.580Z,98533.38
2022-11-19T05:27:34.060Z,98534.81
2022-11-19T05:30:00.775Z,98530.03
2022-11-19T05:32:27.208Z,98530.88
2022-11-19T05:34:53.790Z,98536.41
2022-11-19T05:37:20.153Z,98538.13
2022-11-19T05:39:46.663Z,98538.56
2022-11-19T05:42:13.135Z,98551.97
2022-11-19T05:44:40.659Z,98549.81
2022-11-19T05:47:07.241Z,98555.34
2022-11-19T05:49:33.581Z,98551.50
2022-11-19T05:52:00.087Z,98560.03
2022-11-19T05:54:26.650Z,98565.41
2022-11-19T05:56:53.269Z,98558.44
2022-11-19T05:59:21.017Z,98563.28
2022-11-19T06:01:48.812Z,98565.56
2022-11-19T06:04:15.453Z,98560.16
2022-11-19T06:06:42.010Z,98570.06
2022-11-19T06:09:08.768Z,98578.34
2022-11-19T06:11:51.041Z,98569.06
2022-11-19T06:14:22.709Z,98574.88
2022-11-19T06:16:53.980Z,98576.19
2022-11-19T06:19:21.335Z,98580.03
2022-11-19T06:21:48.771Z,98587.66
2022-11-19T06:24:15.425Z,98580.50
2022-11-19T06:26:42.050Z,98595.69
2022-11-19T06:29:08.578Z,98602.09
2022-11-19T06:31:35.196Z,98602.66
2022-11-19T06:34:01.915Z,98600.59
2022-11-19T06:36:35.946Z,98608.22
2022-11-19T06:39:05.617Z,98612.03
2022-11-19T06:41:32.357Z,98604.91
2022-11-19T06:43:58.877Z,98607.06
2022-11-19T06:46:25.338Z,98609.16
2022-11-19T06:48:51.781Z,98612.66
2022-11-19T06:51:18.385Z,98621.56
2022-11-19T06:53:44.929Z,98617.94
2022-11-19T06:56:11.546Z,98622.75
2022-11-19T06:58:37.989Z,98630.50
2022-11-19T07:01:04.585Z,98634.03
2022-11-19T07:03:31.144Z,98634.03
2022-11-19T07:06:00.034Z,98638.97
2022-11-19T07:08:26.531Z,98638.41
2022-11-19T07:10:53.104Z,98649.84
2022-11-19T07:13:19.627Z,98645.63
2022-11-19T07:15:46.093Z,98639.09
2022-11-19T07:18:13.083Z,98639.00
2022-11-19T07:20:39.490Z,98640.94
2022-11-19T07:23:10.511Z,98646.47
2022-11-19T07:25:37.644Z,98652.88
2022-11-19T07:28:04.248Z,98648.41
2022-11-19T07:30:31.379Z,98656.97
2022-11-19T07:32:58.164Z,98653.94
2022-11-19T07:35:24.895Z,98648.41
2022-11-19T07:37:51.314Z,98649.63
2022-11-19T07:40:17.893Z,98649.84
2022-11-19T07:42:50.458Z,98641.28
2022-11-19T07:45:22.004Z,98642.38
2022-11-19T07:47:48.940Z,98651.56
2022-11-19T07:50:17.202Z,98652.72
2022-11-19T07:52:43.935Z,98657.91
2022-11-19T07:55:10.720Z,98663.81
2022-11-19T07:57:37.332Z,98666.69
2022-11-19T08:00:05.913Z,98669.28
2022-11-19T08:02:33.023Z,98665.28
2022-11-19T08:04:59.558Z,98667.31
2022-11-19T08:07:26.142Z,98671.09
2022-11-19T08:09:52.551Z,98672.13
2022-11-19T08:12:19.155Z,98672.34
2022-11-19T08:14:45.554Z,98678.44
2022-11-19T08:17:30.908Z,98682.31
2022-11-19T08:19:57.412Z,98684.75
2022-11-19T08:22:23.831Z,98693.00
2022-11-19T08:24:51.375Z,98710.84
2022-11-19T08:27:18.472Z,98715.88
2022-11-19T08:29:45.052Z,98711.97
2022-11-19T08:32:11.464Z,98717.25
2022-11-19T08:34:38.006Z,98713.22
2022-11-19T08:37:04.400Z,98717.31
2022-11-19T08:39:31.027Z,98724.00
2022-11-19T08:42:16.546Z,98721.97
2022-11-19T08:44:42.835Z,98734.09
2022-11-19T08:47:09.248Z,98733.78
2022-11-19T08:49:35.890Z,98740.13
2022-11-19T08:52:02.289Z,98739.38
2022-11-19T08:54:28.805Z,98738.50
2022-11-19T08:56:55.186Z,98725.47
2022-11-19T08:59:22.245Z,98720.66
2022-11-19T09:01:50.311Z,98722.31
2022-11-19T09:04:17.483Z,98717.59
2022-11-19T09:06:44.103Z,98718.91
2022-11-19T09:09:10.626Z,98708.50
2022-11-19T09:11:41.350Z,98714.44
2022-11-19T09:14:09.458Z,98718.50
2022-11-19T09:16:35.970Z,98727.13
2022-11-19T09:19:03.561Z,98736.25
2022-11-19T09:21:29.974Z,98733.31
2022-11-19T09:23:56.505Z,98742.69
2022-11-19T09:26:22.907Z,98745.53
2022-11-19T09:28:50.449Z,98746.34
2022-11-19T09:31:19.613Z,98747.38
2022-11-19T09:33:49.377Z,98746.31
2022-11-19T09:36:16.093Z,98740.75
2022-11-19T09:38:43.385Z,98739.31
2022-11-19T09:41:25.676Z,98737.66
2022-11-19T09:44:01.475Z,98741.88
2022-11-19T09:47:14.178Z,98735.09
2022-11-19T09:50:22.322Z,98750.06
2022-11-19T09:52:51.691Z,98759.66
2022-11-19T09:55:30.492Z,98764.50
2022-11-19T09:57:58.696Z,98764.91
2022-11-19T10:00:30.445Z,98770.31
2022-11-19T10:02:59.042Z,98772.09
2022-11-19T10:05:47.400Z,98770.88
2022-11-19T10:08:44.180Z,98772.31
2022-11-19T10:11:32.469Z,98775.41
2022-11-19T10:14:10.582Z,98786.88
2022-11-19T10:16:40.075Z,98783.75
2022-11-19T10:19:25.587Z,98778.22
2022-11-19T10:22:04.310Z,98776.22
2022-11-19T10:24:45.181Z,98781.72
2022-11-19T10:27:40.687Z,98782.84
2022-11-19T10:30:16.298Z,98788.13
2022-11-19T10:33:00.516Z,98791.63
2022-11-19T10:35:40.608Z,98789.56
2022-11-19T10:38:19.275Z,98788.00
2022-11-19T10:41:00.094Z,98782.38
2022-11-19T10:43:39.714Z,98784.78
2022-11-19T10:46:10.801Z,98795.31
2022-11-19T10:48:41.618Z,98794.44
2022-11-19T10:51:16.018Z,98793.66
2022-11-19T10:53:43.310Z,98799.06
2022-11-19T10:56:16.278Z,98793.78
2022-11-19T10:58:49.939Z,98792.69
2022-11-19T11:01:28.496Z,98788.91
2022-11-19T11:04:00.797Z,98786.50
2022-11-19T11:06:27.353Z,98792.53
2022-11-19T11:08:56.364Z,98802.69
2022-11-19T11:11:50.782Z,98810.53
2022-11-19T11:14:39.345Z,98791.00
2022-11-19T11:17:18.426Z,98790.91
2022-11-19T11:19:45.005Z,98793.25
2022-11-19T11:22:11.665Z,98792.44
2022-11-19T11:24:39.247Z,98791.25
2022-11-19T11:27:28.028Z,98792.94
2022-11-19T11:30:06.830Z,98780.97
2022-11-19T11:32:36.425Z,98767.03
2022-11-19T11:35:07.520Z,98772.09
2022-11-19T11:37:35.728Z,98774.31
2022-11-19T11:40:02.453Z,98778.66
2022-11-19T11:42:29.595Z,98781.34
2022-11-19T11:45:01.021Z,98777.69
2022-11-19T11:47:35.906Z,98777.69
2022-11-19T11:50:19.983Z,98767.06
2022-11-19T11:52:49.579Z,98776.75
2022-11-19T11:55:31.645Z,98772.09
2022-11-19T11:58:03.558Z,98771.97
2022-11-19T12:00:46.052Z,98761.75
2022-11-19T12:03:20.673Z,98757.16
2022-11-19T12:05:56.275Z,98768.00
2022-11-19T12:08:27.020Z,98758.47
2022-11-19T12:11:18.167Z,98755.22
2022-11-19T12:14:11.343Z,98758.38
2022-11-19T12:17:30.656Z,98763.41
2022-11-19T12:19:57.133Z,98763.94
2022-11-19T12:22:42.800Z,98765.03
2022-11-19T12:25:25.173Z,98757.81
2022-11-19T12:28:19.820Z,98765.66
2022-11-19T12:31:00.508Z,98761.06
2022-11-19T12:33:35.605Z,98765.38
2022-11-19T12:36:20.805Z,98763.88
2022-11-19T12:38:56.293Z,98768.66
2022-11-19T12:41:50.647Z,98777.63
2022-11-19T12:44:20.006Z,98779.19
2022-11-19T12:47:11.276Z,98779.78
2022-11-19T12:49:46.795Z,98781.91
2022-11-19T12:52:39.852Z,98776.13
2022-11-19T12:55:39.813Z,98780.38
2022-11-19T12:58:25.734Z,98773.41
2022-11-19T13:01:09.110Z,98769.03
2022-11-19T13:03:44.795Z,98770.31
2022-11-19T13:06:46.587Z,98768.59
2022-11-19T13:09:25.518Z,98773.22
2022-11-19T13:12:00.139Z,98777.16
2022-11-19T13:14:50.731Z,98771.97
2022-11-19T13:17:31.040Z,98779.72
2022-11-19T13:20:17.846Z,98781.75
2022-11-19T13:22:47.522Z,98781.81
2022-11-19T13:25:22.152Z,98784.72
2022-11-19T13:27:50.594Z,98788.66
2022-11-19T13:30:19.791Z,98784.00
2022-11-19T13:33:11.688Z,98785.66
2022-11-19T13:35:41.828Z,98799.63
2022-11-19T13:38:28.196Z,98789.91
2022-11-19T13:41:12.976Z,98800.66
2022-11-19T13:43:58.605Z,98804.78
2022-11-19T13:46:43.475Z,98796.22
2022-11-19T13:49:32.968Z,98795.91
2022-11-19T13:52:06.532Z,98795.25
2022-11-19T13:54:39.191Z,98790.44
2022-11-19T13:57:08.252Z,98797.75
2022-11-19T13:59:40.836Z,98789.78
2022-11-19T14:02:27.164Z,98798.00
2022-11-19T14:05:29.077Z,98799.41
2022-11-19T14:08:18.680Z,98816.69
2022-11-19T14:10:57.742Z,98809.63
2022-11-19T14:13:52.882Z,98811.44
2022-11-19T14:17:05.647Z,98805.03
2022-11-19T14:20:07.493Z,98804.81
2022-11-19T14:22:59.834Z,98803.38
2022-11-19T14:26:07.133Z,98807.38
2022-11-19T14:28:41.380Z,98815.03
2022-11-19T14:31:08.179Z,98825.88
2022-11-19T14:33:46.753Z,98818.81
2022-11-19T14:36:18.955Z,98819.47
2022-11-19T14:38:54.966Z,98809.88
2022-11-19T14:41:34.742Z,98810.50
2022-11-19T14:44:30.768Z,98808.38
2022-11-19T14:47:25.289Z,98806.22
2022-11-19T14:49:55.729Z,98812.88
2022-11-19T14:52:29.380Z,98816.72
2022-11-19T14:55:02.054Z,98823.84
2022-11-19T14:57:32.970Z,98820.56
2022-11-19T15:00:07.899Z,98823.97
2022-11-19T15:02:39.635Z,98822.97
2022-11-19T15:05:15.873Z,98835.41
2022-11-19T15:07:49.016Z,98839.81
2022-11-19T15:10:32.019Z,98840.69
2022-11-19T15:13:20.377Z,98839.00
2022-11-19T15:15:50.578Z,98838.84
2022-11-19T15:18:41.320Z,98839.47
2022-11-19T15:21:32.224Z,98840.97
2022-11-19T15:24:29.443Z,98846.47
2022-11-19T15:27:13.695Z,98837.84
2022-11-19T15:30:00.977Z,98846.03
2022-11-19T15:32:46.519Z,98852.72
2022-11-19T15:35:15.595Z,98847.53
2022-11-19T15:37:58.954Z,98843.94
2022-11-19T15:40:30.509Z,98843.09
2022-11-19T15:43:06.504Z,98842.03
2022-11-19T15:45:39.478Z,98847.34
2022-11-19T15:48:23.967Z,98852.41
2022-11-19T15:50:51.495Z,98843.41
2022-11-19T15:53:23.721Z,98849.66
2022-11-19T15:56:01.259Z,98843.81
2022-11-19T15:58:42.564Z,98851.47
2022-11-19T16:01:14.601Z,98846.16
2022-11-19T16:03:41.374Z,98844.13
2022-11-19T16:06:20.196Z,98850.19
2022-11-19T16:08:51.364Z,98854.09
2022-11-19T16:11:39.053Z,98839.88
2022-11-19T16:14:49.922Z,98842.53
2022-11-19T16:17:39.926Z,98849.97
2022-11-19T16:20:09.721Z,98846.16
2022-11-19T16:22:48.302Z,98850.94
2022-11-19T16:25:35.892Z,98852.91
2022-11-19T16:28:14.925Z,98861.13
2022-11-19T16:31:02.997Z,98848.69
2022-11-19T16:33:31.164Z,98849.66
2022-11-19T16:36:11.011Z,98841.09
2022-11-19T16:38:40.723Z,98840.03
2022-11-19T16:41:30.900Z,98840.56
2022-11-19T16:43:57.807Z,98842.47
2022-11-19T16:46:29.672Z,98834.00
2022-11-19T16:48:59.052Z,98839.31
2022-11-19T16:51:36.696Z,98845.66
2022-11-19T16:54:05.982Z,98854.34
2022-11-19T16:56:35.733Z,98847.03
2022-11-19T16:59:04.568Z,98849.06
2022-11-19T17:01:32.390Z,98854.88
2022-11-19T17:04:07.358Z,98865.38
2022-11-19T17:06:37.049Z,98863.03
2022-11-19T17:09:05.695Z,98857.31
2022-11-19T17:12:20.129Z,98867.59
2022-11-19T17:14:50.136Z,98868.44
2022-11-19T17:17:41.091Z,98868.53
2022-11-19T17:20:30.495Z,98866.84
2022-11-19T17:22:57.667Z,98869.59
2022-11-19T17:25:24.667Z,98872.03
2022-11-19T17:27:55.899Z,98876.69
2022-11-19T17:30:34.148Z,98879.16
2022-11-19T17:33:04.887Z,98885.81
2022-11-19T17:35:40.338Z,98877.25
2022-11-19T17:38:15.591Z,98881.03
2022-11-19T17:40:47.753Z,98878.72
2022-11-19T17:43:34.983Z,98884.66
2022-11-19T17:46:01.517Z,98884.41
2022-11-19T17:48:28.802Z,98880.63
2022-11-19T17:50:55.548Z,98884.66
2022-11-19T17:53:23.443Z,98889.31
2022-11-19T17:55:53.840Z,98896.91
2022-11-19T17:58:20.358Z,98895.44
2022-11-19T18:00:47.536Z,98892.47
2022-11-19T18:03:14.819Z,98896.72
2022-11-19T18:05:49.440Z,98895.00
2022-11-19T18:08:16.705Z,98894.59
2022-11-19T18:10:46.741Z,98898.00
2022-11-19T18:13:18.786Z,98898.63
2022-11-19T18:15:45.311Z,98905.94
2022-11-19T18:18:11.660Z,98906.38
2022-11-19T18:20:38.231Z,98903.59
2022-11-19T18:23:04.782Z,98902.66
2022-11-19T18:25:31.378Z,98894.38
2022-11-19T18:27:57.889Z,98894.81
2022-11-19T18:30:24.448Z,98898.28
2022-11-19T18:32:50.827Z,98897.13
2022-11-19T18:35:19.616Z,98910.91
2022-11-19T18:37:46.573Z,98908.69
2022-11-19T18:40:14.488Z,98908.38
2022-11-19T18:43:00.324Z,98910.09
2022-11-19T18:45:27.095Z,98911.44
2022-11-19T18:47:53.519Z,98913.88
2022-11-19T18:50:20.357Z,98908.69
2022-11-19T18:52:46.864Z,98914.31
2022-11-19T18:55:13.731Z,98905.41
2022-11-19T18:57:40.207Z,98909.34
2022-11-19T19:00:07.572Z,98909.22
2022-11-19T19:02:35.849Z,98909.97
2022-11-19T19:05:03.303Z,98910.16
2022-11-19T19:07:29.860Z,98905.50
2022-11-19T19:09:58.538Z,98900.53
2022-11-19T19:12:24.992Z,98901.78
2022-11-19T19:14:51.887Z,98902.41
2022-11-19T19:17:18.872Z,98903.59
2022-11-19T19:19:45.521Z,98911.28
2022-11-19T19:22:11.969Z,98907.50
2022-11-19T19:24:38.955Z,98911.44
2022-11-19T19:27:05.467Z,98904.06
2022-11-19T19:29:32.558Z,98902.28
2022-11-19T19:31:59.249Z,98893.78
2022-11-19T19:34:26.142Z,98897.50
2022-11-19T19:36:53.581Z,98893.69
2022-11-19T19:39:21.902Z,98893.91
2022-11-19T19:41:49.164Z,98898.97
2022-11-19T19:44:16.596Z,98900.59
2022-11-19T19:46:43.121Z,98899.41
2022-11-19T19:49:09.573Z,98895.56
2022-11-19T19:51:36.399Z,98893.69
2022-11-19T19:54:03.031Z,98904.19
2022-11-19T19:56:31.342Z,98896.00
2022-11-19T19:58:59.119Z,98892.50
2022-11-19T20:01:28.632Z,98895.78
2022-11-19T20:04:02.845Z,98894.56
2022-11-19T20:06:29.859Z,98888.38
2022-11-19T20:08:56.712Z,98889.69
2022-11-19T20:11:25.189Z,98899.22
2022-11-19T20:13:53.237Z,98902.97
2022-11-19T20:16:22.532Z,98900.03
2022-11-19T20:18:50.812Z,98899.94
2022-11-19T20:21:29.357Z,98903.22
2022-11-19T20:23:55.882Z,98902.28
2022-11-19T20:26:25.287Z,98905.69
2022-11-19T20:28:56.728Z,98901.97
2022-11-19T20:31:25.244Z,98902.16
2022-11-19T20:33:55.213Z,98903.97
2022-11-19T20:36:24.398Z,98908.72
2022-11-19T20:38:51.206Z,98896.31
2022-11-19T20:41:38.217Z,98907.56
2022-11-19T20:44:21.685Z,98914.22
2022-11-19T20:47:03.215Z,98911.28
2022-11-19T20:49:32.621Z,98912.38
2022-11-19T20:51:59.513Z,98899.63
2022-11-19T20:54:26.662Z,98904.28
2022-11-19T20:56:54.228Z,98905.34
2022-11-19T20:59:22.292Z,98905.13
2022-11-19T21:01:50.417Z,98903.34
2022-11-19T21:04:17.851Z,98910.00
2022-11-19T21:06:44.692Z,98914.00
2022-11-19T21:09:11.187Z,98907.09
2022-11-19T21:11:37.814Z,98910.56
2022-11-19T21:14:04.544Z,98909.84
2022-11-19T21:16:32.734Z,98916.97
2022-11-19T21:18:59.620Z,98918.53
2022-11-19T21:21:26.641Z,98922.88
2022-11-19T21:23:54.180Z,98914.94
2022-11-19T21:26:23.001Z,98917.59
2022-11-19T21:28:52.170Z,98900.97
2022-11-19T21:31:21.398Z,98913.22
2022-11-19T21:33:48.010Z,98902.78
2022-11-19T21:36:14.927Z,98901.78
2022-11-19T21:38:41.376Z,98894.38
2022-11-19T21:41:08.049Z,98897.56
2022-11-19T21:43:35.210Z,98894.69
2022-11-19T21:46:01.872Z,98900.59
2022-11-19T21:48:28.440Z,98887.72
2022-11-19T21:50:55.012Z,98890.66
2022-11-19T21:53:21.914Z,98885.81
2022-11-19T21:55:49.235Z,98883.78
2022-11-19T21:58:16.426Z,98885.56
2022-11-19T22:00:44.156Z,98891.59
2022-11-19T22:03:10.804Z,98890.22
2022-11-19T22:05:37.224Z,98896.34
2022-11-19T22:08:03.900Z,98892.22
2022-11-19T22:10:30.433Z,98890.22
2022-11-19T22:13:00.015Z,98891.41
2022-11-19T22:15:27.044Z,98896.13
2022-11-19T22:17:53.816Z,98887.91
2022-11-19T22:20:20.347Z,98892.56
2022-11-19T22:22:46.963Z,98895.94
2022-11-19T22:25:14.039Z,98893.38
2022-11-19T22:27:41.939Z,98898.66
2022-11-19T22:30:10.024Z,98900.34
2022-11-19T22:32:37.696Z,98900.16
2022-11-19T22:35:05.203Z,98895.69
2022-11-19T22:37:32.021Z,98891.50
2022-11-19T22:39:58.459Z,98888.13
2022-11-19T22:42:25.247Z,98886.81
2022-11-19T22:44:51.829Z,98877.94
2022-11-19T22:47:18.197Z,98881.34
2022-11-19T22:49:44.862Z,98871.59
2022-11-19T22:52:11.374Z,98880.06
2022-11-19T22:54:41.586Z,98876.88
2022-11-19T22:57:08.712Z,98867.38
2022-11-19T22:59:35.979Z,98870.31
2022-11-19T23:02:02.480Z,98876.44
2022-11-19T23:04:29.223Z,98883.19
2022-11-19T23:06:55.863Z,98876.59
2022-11-19T23:09:22.667Z,98875.50
2022-11-19T23:12:07.848Z,98873.31
2022-11-19T23:14:34.231Z,98879.53
2022-11-19T23:17:00.697Z,98870.84
2022-11-19T23:19:27.178Z,98867.00
2022-11-19T23:21:53.618Z,98876.75
2022-11-19T23:24:20.279Z,98871.66
2022-11-19T23:26:46.675Z,98865.09
2022-11-19T23:29:13.348Z,98862.34
2022-11-19T23:31:40.391Z,98860.50
2022-11-19T23:34:08.123Z,98858.22
2022-11-19T23:36:37.717Z,98856.22
2022-11-19T23:39:05.574Z,98848.78
2022-11-19T23:41:33.433Z,98853.88
2022-11-19T23:44:00.674Z,98862.34
2022-11-19T23:46:32.743Z,98862.81
2022-11-19T23:49:01.284Z,98862.66
2022-11-19T23:51:33.846Z,98871.22
2022-11-19T23:54:01.110Z,98865.00
2022-11-19T23:56:29.738Z,98871.00
2022-11-19T23:58:56.711Z,98864.00
